sensor_id;sensor_type;location;lat;lon;timestamp;P1;durP1;ratioP1;P2;durP2;ratioP2
11431;SDS011;5772;50.940;6.782;2022-11-14T00:02:20;25.17;;;23.77;;
11431;SDS011;5772;50.940;6.782;2022-11-14T00:04:45;25.47;;;23.97;;
11431;SDS011;5772;50.940;6.782;2022-11-14T00:07:11;25.57;;;24.17;;
11431;SDS011;5772;50.940;6.782;2022-11-14T00:09:36;25.43;;;23.93;;
11431;SDS011;5772;50.940;6.782;2022-11-14T00:12:02;25.03;;;23.73;;
11431;SDS011;5772;50.940;6.782;2022-11-14T00:14:27;26.53;;;25.00;;
11431;SDS011;5772;50.940;6.782;2022-11-14T00:16:52;26.50;;;24.83;;
11431;SDS011;5772;50.940;6.782;2022-11-14T00:19:19;27.03;;;25.47;;
11431;SDS011;5772;50.940;6.782;2022-11-14T00:21:45;27.10;;;25.37;;
11431;SDS011;5772;50.940;6.782;2022-11-14T00:24:10;27.63;;;26.03;;
11431;SDS011;5772;50.940;6.782;2022-11-14T00:26:36;28.83;;;27.07;;
11431;SDS011;5772;50.940;6.782;2022-11-14T00:29:01;29.90;;;28.10;;
11431;SDS011;5772;50.940;6.782;2022-11-14T00:31:26;31.70;;;29.90;;
11431;SDS011;5772;50.940;6.782;2022-11-14T00:33:52;31.13;;;29.27;;
11431;SDS011;5772;50.940;6.782;2022-11-14T00:36:18;30.80;;;28.90;;
11431;SDS011;5772;50.940;6.782;2022-11-14T00:38:44;31.10;;;29.00;;
11431;SDS011;5772;50.940;6.782;2022-11-14T00:41:09;30.13;;;28.17;;
11431;SDS011;5772;50.940;6.782;2022-11-14T00:43:35;30.37;;;28.67;;
11431;SDS011;5772;50.940;6.782;2022-11-14T00:46:00;30.53;;;28.73;;
11431;SDS011;5772;50.940;6.782;2022-11-14T00:48:25;30.90;;;28.70;;
11431;SDS011;5772;50.940;6.782;2022-11-14T00:50:51;31.37;;;29.47;;
11431;SDS011;5772;50.940;6.782;2022-11-14T00:53:17;30.93;;;29.13;;
11431;SDS011;5772;50.940;6.782;2022-11-14T00:55:43;33.33;;;31.27;;
11431;SDS011;5772;50.940;6.782;2022-11-14T00:58:08;32.80;;;30.70;;
11431;SDS011;5772;50.940;6.782;2022-11-14T01:00:33;32.03;;;29.93;;
11431;SDS011;5772;50.940;6.782;2022-11-14T01:02:59;31.87;;;29.87;;
11431;SDS011;5772;50.940;6.782;2022-11-14T01:05:25;34.00;;;31.57;;
11431;SDS011;5772;50.940;6.782;2022-11-14T01:07:50;33.07;;;31.17;;
11431;SDS011;5772;50.940;6.782;2022-11-14T01:10:17;32.33;;;30.13;;
11431;SDS011;5772;50.940;6.782;2022-11-14T01:12:43;34.00;;;32.00;;
11431;SDS011;5772;50.940;6.782;2022-11-14T01:15:09;31.77;;;29.83;;
11431;SDS011;5772;50.940;6.782;2022-11-14T01:17:34;32.70;;;30.20;;
11431;SDS011;5772;50.940;6.782;2022-11-14T01:19:59;31.80;;;29.77;;
11431;SDS011;5772;50.940;6.782;2022-11-14T01:22:25;31.93;;;29.67;;
11431;SDS011;5772;50.940;6.782;2022-11-14T01:24:50;31.90;;;29.67;;
11431;SDS011;5772;50.940;6.782;2022-11-14T01:27:17;32.13;;;30.07;;
11431;SDS011;5772;50.940;6.782;2022-11-14T01:29:42;31.83;;;29.90;;
11431;SDS011;5772;50.940;6.782;2022-11-14T01:32:08;31.93;;;29.67;;
11431;SDS011;5772;50.940;6.782;2022-11-14T01:34:33;32.43;;;30.53;;
11431;SDS011;5772;50.940;6.782;2022-11-14T01:36:58;32.13;;;30.13;;
11431;SDS011;5772;50.940;6.782;2022-11-14T01:39:24;30.87;;;28.93;;
11431;SDS011;5772;50.940;6.782;2022-11-14T01:41:50;30.93;;;28.93;;
11431;SDS011;5772;50.940;6.782;2022-11-14T01:44:17;29.63;;;27.73;;
11431;SDS011;5772;50.940;6.782;2022-11-14T01:47:02;30.80;;;28.83;;
11431;SDS011;5772;50.940;6.782;2022-11-14T01:49:29;29.30;;;27.53;;
11431;SDS011;5772;50.940;6.782;2022-11-14T01:51:58;31.87;;;30.07;;
11431;SDS011;5772;50.940;6.782;2022-11-14T01:54:28;29.87;;;28.27;;
11431;SDS011;5772;50.940;6.782;2022-11-14T01:56:55;29.87;;;27.77;;
11431;SDS011;5772;50.940;6.782;2022-11-14T01:59:24;30.83;;;29.07;;
11431;SDS011;5772;50.940;6.782;2022-11-14T02:01:53;28.90;;;27.07;;
11431;SDS011;5772;50.940;6.782;2022-11-14T02:04:21;28.37;;;26.87;;
11431;SDS011;5772;50.940;6.782;2022-11-14T02:06:47;30.27;;;28.43;;
11431;SDS011;5772;50.940;6.782;2022-11-14T02:09:13;29.87;;;28.10;;
11431;SDS011;5772;50.940;6.782;2022-11-14T02:11:38;29.87;;;28.13;;
11431;SDS011;5772;50.940;6.782;2022-11-14T02:14:06;28.27;;;26.67;;
11431;SDS011;5772;50.940;6.782;2022-11-14T02:16:33;29.93;;;28.33;;
11431;SDS011;5772;50.940;6.782;2022-11-14T02:18:58;27.23;;;25.73;;
11431;SDS011;5772;50.940;6.782;2022-11-14T02:21:25;29.63;;;27.93;;
11431;SDS011;5772;50.940;6.782;2022-11-14T02:23:50;28.27;;;26.53;;
11431;SDS011;5772;50.940;6.782;2022-11-14T02:26:16;28.63;;;27.03;;
11431;SDS011;5772;50.940;6.782;2022-11-14T02:28:42;29.23;;;27.53;;
11431;SDS011;5772;50.940;6.782;2022-11-14T02:31:07;30.17;;;28.17;;
11431;SDS011;5772;50.940;6.782;2022-11-14T02:33:33;28.73;;;27.10;;
11431;SDS011;5772;50.940;6.782;2022-11-14T02:35:58;28.53;;;26.93;;
11431;SDS011;5772;50.940;6.782;2022-11-14T02:38:25;29.47;;;27.70;;
11431;SDS011;5772;50.940;6.782;2022-11-14T02:40:50;30.27;;;28.57;;
11431;SDS011;5772;50.940;6.782;2022-11-14T02:43:15;29.30;;;27.43;;
11431;SDS011;5772;50.940;6.782;2022-11-14T02:45:41;32.00;;;29.90;;
11431;SDS011;5772;50.940;6.782;2022-11-14T02:48:06;29.60;;;27.80;;
11431;SDS011;5772;50.940;6.782;2022-11-14T02:50:32;29.70;;;27.90;;
11431;SDS011;5772;50.940;6.782;2022-11-14T02:52:57;30.23;;;28.53;;
11431;SDS011;5772;50.940;6.782;2022-11-14T02:55:24;29.70;;;28.07;;
11431;SDS011;5772;50.940;6.782;2022-11-14T02:57:49;31.60;;;29.57;;
11431;SDS011;5772;50.940;6.782;2022-11-14T03:00:15;31.60;;;29.73;;
11431;SDS011;5772;50.940;6.782;2022-11-14T03:02:41;31.33;;;29.23;;
11431;SDS011;5772;50.940;6.782;2022-11-14T03:05:07;31.53;;;29.43;;
11431;SDS011;5772;50.940;6.782;2022-11-14T03:07:32;30.47;;;28.77;;
11431;SDS011;5772;50.940;6.782;2022-11-14T03:09:57;31.20;;;29.40;;
11431;SDS011;5772;50.940;6.782;2022-11-14T03:12:24;30.47;;;28.57;;
11431;SDS011;5772;50.940;6.782;2022-11-14T03:14:49;30.80;;;29.00;;
11431;SDS011;5772;50.940;6.782;2022-11-14T03:17:15;31.87;;;29.97;;
11431;SDS011;5772;50.940;6.782;2022-11-14T03:19:40;32.47;;;30.47;;
11431;SDS011;5772;50.940;6.782;2022-11-14T03:22:05;32.60;;;30.73;;
11431;SDS011;5772;50.940;6.782;2022-11-14T03:24:31;32.53;;;30.63;;
11431;SDS011;5772;50.940;6.782;2022-11-14T03:26:56;32.23;;;30.33;;
11431;SDS011;5772;50.940;6.782;2022-11-14T03:29:23;34.87;;;32.47;;
11431;SDS011;5772;50.940;6.782;2022-11-14T03:31:48;34.23;;;32.33;;
11431;SDS011;5772;50.940;6.782;2022-11-14T03:34:14;35.53;;;33.37;;
11431;SDS011;5772;50.940;6.782;2022-11-14T03:36:39;37.57;;;35.23;;
11431;SDS011;5772;50.940;6.782;2022-11-14T03:39:04;34.03;;;32.03;;
11431;SDS011;5772;50.940;6.782;2022-11-14T03:41:30;37.37;;;35.03;;
11431;SDS011;5772;50.940;6.782;2022-11-14T03:43:56;36.37;;;34.13;;
11431;SDS011;5772;50.940;6.782;2022-11-14T03:46:22;37.57;;;35.37;;
11431;SDS011;5772;50.940;6.782;2022-11-14T03:48:48;36.07;;;34.00;;
11431;SDS011;5772;50.940;6.782;2022-11-14T03:51:13;38.90;;;36.57;;
11431;SDS011;5772;50.940;6.782;2022-11-14T03:53:39;38.83;;;36.33;;
11431;SDS011;5772;50.940;6.782;2022-11-14T03:56:04;39.27;;;36.93;;
11431;SDS011;5772;50.940;6.782;2022-11-14T03:58:30;38.20;;;35.77;;
11431;SDS011;5772;50.940;6.782;2022-11-14T04:00:55;37.13;;;35.10;;
11431;SDS011;5772;50.940;6.782;2022-11-14T04:03:22;36.60;;;34.50;;
11431;SDS011;5772;50.940;6.782;2022-11-14T04:05:47;36.27;;;33.97;;
11431;SDS011;5772;50.940;6.782;2022-11-14T04:08:13;38.17;;;35.90;;
11431;SDS011;5772;50.940;6.782;2022-11-14T04:10:38;35.83;;;33.53;;
11431;SDS011;5772;50.940;6.782;2022-11-14T04:13:04;38.30;;;35.77;;
11431;SDS011;5772;50.940;6.782;2022-11-14T04:15:29;37.63;;;35.33;;
11431;SDS011;5772;50.940;6.782;2022-11-14T04:17:55;36.57;;;34.43;;
11431;SDS011;5772;50.940;6.782;2022-11-14T04:20:21;37.40;;;35.23;;
11431;SDS011;5772;50.940;6.782;2022-11-14T04:22:47;37.30;;;35.27;;
11431;SDS011;5772;50.940;6.782;2022-11-14T04:25:12;39.00;;;36.53;;
11431;SDS011;5772;50.940;6.782;2022-11-14T04:27:37;38.93;;;36.20;;
11431;SDS011;5772;50.940;6.782;2022-11-14T04:30:03;37.80;;;35.60;;
11431;SDS011;5772;50.940;6.782;2022-11-14T04:32:29;38.90;;;36.70;;
11431;SDS011;5772;50.940;6.782;2022-11-14T04:34:54;43.30;;;40.43;;
11431;SDS011;5772;50.940;6.782;2022-11-14T04:37:21;39.03;;;36.70;;
11431;SDS011;5772;50.940;6.782;2022-11-14T04:39:46;40.07;;;37.50;;
11431;SDS011;5772;50.940;6.782;2022-11-14T04:42:12;38.67;;;36.53;;
11431;SDS011;5772;50.940;6.782;2022-11-14T04:44:37;37.77;;;35.37;;
11431;SDS011;5772;50.940;6.782;2022-11-14T04:47:02;39.87;;;37.47;;
11431;SDS011;5772;50.940;6.782;2022-11-14T04:49:28;38.30;;;36.23;;
11431;SDS011;5772;50.940;6.782;2022-11-14T04:51:53;39.00;;;36.67;;
11431;SDS011;5772;50.940;6.782;2022-11-14T04:54:20;40.10;;;37.90;;
11431;SDS011;5772;50.940;6.782;2022-11-14T04:56:45;40.30;;;37.83;;
11431;SDS011;5772;50.940;6.782;2022-11-14T04:59:11;38.87;;;36.60;;
11431;SDS011;5772;50.940;6.782;2022-11-14T05:01:36;40.27;;;37.90;;
11431;SDS011;5772;50.940;6.782;2022-11-14T05:04:01;40.10;;;37.73;;
11431;SDS011;5772;50.940;6.782;2022-11-14T05:06:27;37.97;;;35.77;;
11431;SDS011;5772;50.940;6.782;2022-11-14T05:08:52;40.03;;;36.97;;
11431;SDS011;5772;50.940;6.782;2022-11-14T05:11:19;38.47;;;36.17;;
11431;SDS011;5772;50.940;6.782;2022-11-14T05:13:45;39.10;;;36.57;;
11431;SDS011;5772;50.940;6.782;2022-11-14T05:16:10;40.33;;;38.23;;
11431;SDS011;5772;50.940;6.782;2022-11-14T05:18:36;37.87;;;35.80;;
11431;SDS011;5772;50.940;6.782;2022-11-14T05:21:01;40.00;;;37.83;;
11431;SDS011;5772;50.940;6.782;2022-11-14T05:23:27;39.17;;;36.97;;
11431;SDS011;5772;50.940;6.782;2022-11-14T05:25:59;37.93;;;35.73;;
11431;SDS011;5772;50.940;6.782;2022-11-14T05:28:26;39.57;;;37.27;;
11431;SDS011;5772;50.940;6.782;2022-11-14T05:30:52;38.40;;;35.93;;
11431;SDS011;5772;50.940;6.782;2022-11-14T05:33:17;36.67;;;34.37;;
11431;SDS011;5772;50.940;6.782;2022-11-14T05:35:43;39.57;;;37.17;;
11431;SDS011;5772;50.940;6.782;2022-11-14T05:38:08;36.40;;;34.27;;
11431;SDS011;5772;50.940;6.782;2022-11-14T05:40:33;35.30;;;32.90;;
11431;SDS011;5772;50.940;6.782;2022-11-14T05:42:59;34.47;;;32.57;;
11431;SDS011;5772;50.940;6.782;2022-11-14T05:45:25;35.40;;;33.20;;
11431;SDS011;5772;50.940;6.782;2022-11-14T05:47:51;37.47;;;35.07;;
11431;SDS011;5772;50.940;6.782;2022-11-14T05:50:16;35.30;;;33.10;;
11431;SDS011;5772;50.940;6.782;2022-11-14T05:52:42;35.00;;;32.87;;
11431;SDS011;5772;50.940;6.782;2022-11-14T05:55:07;36.57;;;34.47;;
11431;SDS011;5772;50.940;6.782;2022-11-14T05:57:33;36.70;;;34.07;;
11431;SDS011;5772;50.940;6.782;2022-11-14T05:59:58;34.20;;;32.13;;
11431;SDS011;5772;50.940;6.782;2022-11-14T06:02:25;35.07;;;32.93;;
11431;SDS011;5772;50.940;6.782;2022-11-14T06:04:50;36.93;;;35.07;;
11431;SDS011;5772;50.940;6.782;2022-11-14T06:07:16;34.40;;;32.30;;
11431;SDS011;5772;50.940;6.782;2022-11-14T06:09:41;35.93;;;33.80;;
11431;SDS011;5772;50.940;6.782;2022-11-14T06:12:06;34.67;;;32.50;;
11431;SDS011;5772;50.940;6.782;2022-11-14T06:14:32;34.90;;;32.87;;
11431;SDS011;5772;50.940;6.782;2022-11-14T06:16:57;35.53;;;33.43;;
11431;SDS011;5772;50.940;6.782;2022-11-14T06:19:24;37.53;;;35.33;;
11431;SDS011;5772;50.940;6.782;2022-11-14T06:21:49;39.90;;;37.33;;
11431;SDS011;5772;50.940;6.782;2022-11-14T06:24:14;37.83;;;35.17;;
11431;SDS011;5772;50.940;6.782;2022-11-14T06:26:40;61.07;;;49.83;;
11431;SDS011;5772;50.940;6.782;2022-11-14T06:29:05;46.10;;;41.57;;
11431;SDS011;5772;50.940;6.782;2022-11-14T06:31:30;41.30;;;38.27;;
11431;SDS011;5772;50.940;6.782;2022-11-14T06:33:56;38.40;;;36.10;;
11431;SDS011;5772;50.940;6.782;2022-11-14T06:36:22;38.90;;;36.70;;
11431;SDS011;5772;50.940;6.782;2022-11-14T06:38:48;38.33;;;35.70;;
11431;SDS011;5772;50.940;6.782;2022-11-14T06:41:14;38.43;;;36.13;;
11431;SDS011;5772;50.940;6.782;2022-11-14T06:43:41;39.13;;;36.77;;
11431;SDS011;5772;50.940;6.782;2022-11-14T06:46:08;39.13;;;36.63;;
11431;SDS011;5772;50.940;6.782;2022-11-14T06:48:34;39.73;;;36.67;;
11431;SDS011;5772;50.940;6.782;2022-11-14T06:51:00;37.90;;;35.40;;
11431;SDS011;5772;50.940;6.782;2022-11-14T06:53:28;38.87;;;35.80;;
11431;SDS011;5772;50.940;6.782;2022-11-14T06:55:55;39.90;;;37.57;;
11431;SDS011;5772;50.940;6.782;2022-11-14T06:58:21;41.07;;;38.60;;
11431;SDS011;5772;50.940;6.782;2022-11-14T07:00:46;42.57;;;39.83;;
11431;SDS011;5772;50.940;6.782;2022-11-14T07:03:11;43.80;;;41.30;;
11431;SDS011;5772;50.940;6.782;2022-11-14T07:05:37;41.50;;;38.67;;
11431;SDS011;5772;50.940;6.782;2022-11-14T07:08:02;44.77;;;41.87;;
11431;SDS011;5772;50.940;6.782;2022-11-14T07:10:29;44.37;;;41.03;;
11431;SDS011;5772;50.940;6.782;2022-11-14T07:12:55;89.10;;;66.73;;
11431;SDS011;5772;50.940;6.782;2022-11-14T07:15:20;124.83;;;87.63;;
11431;SDS011;5772;50.940;6.782;2022-11-14T07:17:45;59.70;;;51.80;;
11431;SDS011;5772;50.940;6.782;2022-11-14T07:20:11;55.23;;;50.20;;
11431;SDS011;5772;50.940;6.782;2022-11-14T07:22:36;42.30;;;39.17;;
11431;SDS011;5772;50.940;6.782;2022-11-14T07:25:01;39.60;;;37.07;;
11431;SDS011;5772;50.940;6.782;2022-11-14T07:27:28;39.23;;;36.57;;
11431;SDS011;5772;50.940;6.782;2022-11-14T07:29:53;37.03;;;33.93;;
11431;SDS011;5772;50.940;6.782;2022-11-14T07:32:19;34.87;;;32.40;;
11431;SDS011;5772;50.940;6.782;2022-11-14T07:34:44;34.50;;;32.20;;
11431;SDS011;5772;50.940;6.782;2022-11-14T07:37:10;35.90;;;32.70;;
11431;SDS011;5772;50.940;6.782;2022-11-14T07:39:35;42.07;;;38.27;;
11431;SDS011;5772;50.940;6.782;2022-11-14T07:42:00;36.17;;;33.53;;
11431;SDS011;5772;50.940;6.782;2022-11-14T07:44:27;38.30;;;35.40;;
11431;SDS011;5772;50.940;6.782;2022-11-14T07:46:52;37.60;;;34.60;;
11431;SDS011;5772;50.940;6.782;2022-11-14T07:49:18;38.80;;;36.10;;
11431;SDS011;5772;50.940;6.782;2022-11-14T07:51:43;39.40;;;36.40;;
11431;SDS011;5772;50.940;6.782;2022-11-14T07:54:09;38.23;;;35.33;;
11431;SDS011;5772;50.940;6.782;2022-11-14T07:56:34;38.27;;;35.43;;
11431;SDS011;5772;50.940;6.782;2022-11-14T07:59:00;36.13;;;33.60;;
11431;SDS011;5772;50.940;6.782;2022-11-14T08:01:26;39.40;;;36.00;;
11431;SDS011;5772;50.940;6.782;2022-11-14T08:03:52;36.87;;;34.33;;
11431;SDS011;5772;50.940;6.782;2022-11-14T08:06:17;37.73;;;35.00;;
11431;SDS011;5772;50.940;6.782;2022-11-14T08:08:42;40.90;;;38.00;;
11431;SDS011;5772;50.940;6.782;2022-11-14T08:11:09;41.23;;;38.27;;
11431;SDS011;5772;50.940;6.782;2022-11-14T08:13:35;38.50;;;35.20;;
11431;SDS011;5772;50.940;6.782;2022-11-14T08:16:02;39.27;;;36.20;;
11431;SDS011;5772;50.940;6.782;2022-11-14T08:18:30;37.77;;;34.87;;
11431;SDS011;5772;50.940;6.782;2022-11-14T08:20:55;36.07;;;33.53;;
11431;SDS011;5772;50.940;6.782;2022-11-14T08:23:21;37.83;;;34.93;;
11431;SDS011;5772;50.940;6.782;2022-11-14T08:25:46;38.20;;;35.43;;
11431;SDS011;5772;50.940;6.782;2022-11-14T08:28:11;37.10;;;34.03;;
11431;SDS011;5772;50.940;6.782;2022-11-14T08:30:37;37.63;;;34.83;;
11431;SDS011;5772;50.940;6.782;2022-11-14T08:33:02;40.10;;;36.80;;
11431;SDS011;5772;50.940;6.782;2022-11-14T08:35:30;36.43;;;33.87;;
11431;SDS011;5772;50.940;6.782;2022-11-14T08:37:56;36.80;;;34.33;;
11431;SDS011;5772;50.940;6.782;2022-11-14T08:40:22;70.53;;;52.40;;
11431;SDS011;5772;50.940;6.782;2022-11-14T08:42:47;42.63;;;38.30;;
11431;SDS011;5772;50.940;6.782;2022-11-14T08:45:12;36.63;;;33.43;;
11431;SDS011;5772;50.940;6.782;2022-11-14T08:47:38;38.23;;;35.27;;
11431;SDS011;5772;50.940;6.782;2022-11-14T08:50:03;37.93;;;34.80;;
11431;SDS011;5772;50.940;6.782;2022-11-14T08:52:31;35.97;;;32.83;;
11431;SDS011;5772;50.940;6.782;2022-11-14T08:54:56;35.40;;;32.77;;
11431;SDS011;5772;50.940;6.782;2022-11-14T08:57:21;36.50;;;33.17;;
11431;SDS011;5772;50.940;6.782;2022-11-14T08:59:47;38.47;;;35.13;;
11431;SDS011;5772;50.940;6.782;2022-11-14T09:02:12;36.30;;;33.47;;
11431;SDS011;5772;50.940;6.782;2022-11-14T09:04:38;34.70;;;32.13;;
11431;SDS011;5772;50.940;6.782;2022-11-14T09:07:03;35.87;;;32.93;;
11431;SDS011;5772;50.940;6.782;2022-11-14T09:09:30;33.80;;;30.73;;
11431;SDS011;5772;50.940;6.782;2022-11-14T09:11:56;37.27;;;34.37;;
11431;SDS011;5772;50.940;6.782;2022-11-14T09:14:21;34.00;;;31.37;;
11431;SDS011;5772;50.940;6.782;2022-11-14T09:16:46;36.43;;;33.10;;
11431;SDS011;5772;50.940;6.782;2022-11-14T09:19:12;33.93;;;31.00;;
11431;SDS011;5772;50.940;6.782;2022-11-14T09:21:37;34.13;;;31.60;;
11431;SDS011;5772;50.940;6.782;2022-11-14T09:24:03;35.87;;;32.80;;
11431;SDS011;5772;50.940;6.782;2022-11-14T09:26:30;35.53;;;32.53;;
11431;SDS011;5772;50.940;6.782;2022-11-14T09:28:55;37.20;;;34.27;;
11431;SDS011;5772;50.940;6.782;2022-11-14T09:31:21;34.67;;;31.63;;
11431;SDS011;5772;50.940;6.782;2022-11-14T09:33:46;34.40;;;31.50;;
11431;SDS011;5772;50.940;6.782;2022-11-14T09:36:12;37.03;;;33.33;;
11431;SDS011;5772;50.940;6.782;2022-11-14T09:38:37;35.60;;;32.70;;
11431;SDS011;5772;50.940;6.782;2022-11-14T09:41:04;36.63;;;33.57;;
11431;SDS011;5772;50.940;6.782;2022-11-14T09:43:46;35.57;;;32.40;;
11431;SDS011;5772;50.940;6.782;2022-11-14T09:46:36;34.93;;;32.27;;
11431;SDS011;5772;50.940;6.782;2022-11-14T09:49:03;34.63;;;31.70;;
11431;SDS011;5772;50.940;6.782;2022-11-14T09:51:34;35.33;;;32.70;;
11431;SDS011;5772;50.940;6.782;2022-11-14T09:54:04;35.60;;;32.87;;
11431;SDS011;5772;50.940;6.782;2022-11-14T09:56:33;35.23;;;32.63;;
11431;SDS011;5772;50.940;6.782;2022-11-14T09:59:00;35.57;;;32.80;;
11431;SDS011;5772;50.940;6.782;2022-11-14T10:01:28;33.53;;;31.17;;
11431;SDS011;5772;50.940;6.782;2022-11-14T10:04:01;35.97;;;33.13;;
11431;SDS011;5772;50.940;6.782;2022-11-14T10:06:28;34.77;;;32.60;;
11431;SDS011;5772;50.940;6.782;2022-11-14T10:09:02;32.97;;;30.73;;
11431;SDS011;5772;50.940;6.782;2022-11-14T10:11:36;34.70;;;32.20;;
11431;SDS011;5772;50.940;6.782;2022-11-14T10:16:52;34.17;;;31.90;;
11431;SDS011;5772;50.940;6.782;2022-11-14T10:19:26;37.37;;;34.77;;
11431;SDS011;5772;50.940;6.782;2022-11-14T10:22:00;35.83;;;33.60;;
11431;SDS011;5772;50.940;6.782;2022-11-14T10:24:40;35.57;;;33.17;;
11431;SDS011;5772;50.940;6.782;2022-11-14T10:27:17;35.03;;;32.73;;
11431;SDS011;5772;50.940;6.782;2022-11-14T10:29:51;35.10;;;32.53;;
11431;SDS011;5772;50.940;6.782;2022-11-14T10:32:40;33.80;;;31.77;;
11431;SDS011;5772;50.940;6.782;2022-11-14T10:35:14;35.53;;;33.10;;
11431;SDS011;5772;50.940;6.782;2022-11-14T10:37:45;32.83;;;30.93;;
11431;SDS011;5772;50.940;6.782;2022-11-14T10:40:16;33.83;;;31.83;;
11431;SDS011;5772;50.940;6.782;2022-11-14T10:42:44;33.30;;;31.03;;
11431;SDS011;5772;50.940;6.782;2022-11-14T10:45:15;34.33;;;32.47;;
11431;SDS011;5772;50.940;6.782;2022-11-14T10:47:42;33.93;;;31.73;;
11431;SDS011;5772;50.940;6.782;2022-11-14T10:50:13;37.80;;;35.30;;
11431;SDS011;5772;50.940;6.782;2022-11-14T10:52:42;34.07;;;31.63;;
11431;SDS011;5772;50.940;6.782;2022-11-14T10:55:12;36.70;;;34.27;;
11431;SDS011;5772;50.940;6.782;2022-11-14T10:57:38;35.53;;;33.00;;
11431;SDS011;5772;50.940;6.782;2022-11-14T11:00:08;35.93;;;32.60;;
11431;SDS011;5772;50.940;6.782;2022-11-14T11:02:47;37.77;;;34.97;;
11431;SDS011;5772;50.940;6.782;2022-11-14T11:05:17;38.93;;;36.00;;
11431;SDS011;5772;50.940;6.782;2022-11-14T11:07:43;34.70;;;32.13;;
11431;SDS011;5772;50.940;6.782;2022-11-14T11:10:18;31.57;;;29.50;;
11431;SDS011;5772;50.940;6.782;2022-11-14T11:12:45;31.67;;;29.20;;
11431;SDS011;5772;50.940;6.782;2022-11-14T11:15:13;32.23;;;29.97;;
11431;SDS011;5772;50.940;6.782;2022-11-14T11:17:42;30.37;;;28.30;;
11431;SDS011;5772;50.940;6.782;2022-11-14T11:20:23;33.00;;;30.60;;
11431;SDS011;5772;50.940;6.782;2022-11-14T11:23:00;32.93;;;30.57;;
11431;SDS011;5772;50.940;6.782;2022-11-14T11:25:26;31.63;;;29.33;;
11431;SDS011;5772;50.940;6.782;2022-11-14T11:28:03;32.07;;;29.70;;
11431;SDS011;5772;50.940;6.782;2022-11-14T11:30:29;33.37;;;30.67;;
11431;SDS011;5772;50.940;6.782;2022-11-14T11:32:56;33.60;;;31.33;;
11431;SDS011;5772;50.940;6.782;2022-11-14T11:35:39;32.37;;;29.93;;
11431;SDS011;5772;50.940;6.782;2022-11-14T11:38:05;32.07;;;29.40;;
11431;SDS011;5772;50.940;6.782;2022-11-14T11:40:30;33.73;;;30.93;;
11431;SDS011;5772;50.940;6.782;2022-11-14T11:42:56;34.13;;;31.57;;
11431;SDS011;5772;50.940;6.782;2022-11-14T11:45:23;32.97;;;30.30;;
11431;SDS011;5772;50.940;6.782;2022-11-14T11:47:50;32.67;;;30.40;;
11431;SDS011;5772;50.940;6.782;2022-11-14T11:50:21;32.73;;;30.20;;
11431;SDS011;5772;50.940;6.782;2022-11-14T11:52:48;32.33;;;29.83;;
11431;SDS011;5772;50.940;6.782;2022-11-14T11:55:16;32.77;;;30.27;;
11431;SDS011;5772;50.940;6.782;2022-11-14T11:57:45;31.90;;;29.57;;
11431;SDS011;5772;50.940;6.782;2022-11-14T12:00:14;32.83;;;30.17;;
11431;SDS011;5772;50.940;6.782;2022-11-14T12:02:41;31.53;;;28.73;;
11431;SDS011;5772;50.940;6.782;2022-11-14T12:05:09;30.37;;;27.77;;
11431;SDS011;5772;50.940;6.782;2022-11-14T12:07:40;33.10;;;30.60;;
11431;SDS011;5772;50.940;6.782;2022-11-14T12:10:11;33.07;;;30.27;;
11431;SDS011;5772;50.940;6.782;2022-11-14T12:12:47;34.97;;;31.80;;
11431;SDS011;5772;50.940;6.782;2022-11-14T12:15:30;32.83;;;30.30;;
11431;SDS011;5772;50.940;6.782;2022-11-14T12:18:11;31.83;;;29.43;;
11431;SDS011;5772;50.940;6.782;2022-11-14T12:20:47;34.63;;;31.57;;
11431;SDS011;5772;50.940;6.782;2022-11-14T12:23:22;35.00;;;32.03;;
11431;SDS011;5772;50.940;6.782;2022-11-14T12:25:58;35.47;;;32.53;;
11431;SDS011;5772;50.940;6.782;2022-11-14T12:28:34;35.10;;;32.47;;
11431;SDS011;5772;50.940;6.782;2022-11-14T12:31:10;35.63;;;32.83;;
11431;SDS011;5772;50.940;6.782;2022-11-14T12:33:37;35.13;;;32.27;;
11431;SDS011;5772;50.940;6.782;2022-11-14T12:36:04;34.40;;;31.87;;
11431;SDS011;5772;50.940;6.782;2022-11-14T12:38:33;35.60;;;32.87;;
11431;SDS011;5772;50.940;6.782;2022-11-14T12:41:04;39.50;;;36.53;;
11431;SDS011;5772;50.940;6.782;2022-11-14T12:43:31;38.40;;;35.50;;
11431;SDS011;5772;50.940;6.782;2022-11-14T12:45:59;39.90;;;37.13;;
11431;SDS011;5772;50.940;6.782;2022-11-14T12:48:29;38.37;;;35.57;;
11431;SDS011;5772;50.940;6.782;2022-11-14T12:50:57;38.30;;;34.97;;
11431;SDS011;5772;50.940;6.782;2022-11-14T12:53:38;34.87;;;31.87;;
11431;SDS011;5772;50.940;6.782;2022-11-14T12:56:06;34.87;;;31.83;;
11431;SDS011;5772;50.940;6.782;2022-11-14T12:58:44;36.40;;;33.63;;
11431;SDS011;5772;50.940;6.782;2022-11-14T13:01:19;33.60;;;31.07;;
11431;SDS011;5772;50.940;6.782;2022-11-14T13:03:55;34.43;;;31.67;;
11431;SDS011;5772;50.940;6.782;2022-11-14T13:06:29;33.57;;;30.73;;
11431;SDS011;5772;50.940;6.782;2022-11-14T13:09:08;33.10;;;30.77;;
11431;SDS011;5772;50.940;6.782;2022-11-14T13:11:53;34.30;;;31.50;;
11431;SDS011;5772;50.940;6.782;2022-11-14T13:14:18;31.63;;;29.13;;
11431;SDS011;5772;50.940;6.782;2022-11-14T13:16:44;33.47;;;30.77;;
11431;SDS011;5772;50.940;6.782;2022-11-14T13:19:12;34.73;;;31.87;;
11431;SDS011;5772;50.940;6.782;2022-11-14T13:27:41;34.43;;;31.30;;
11431;SDS011;5772;50.940;6.782;2022-11-14T13:30:06;36.10;;;33.00;;
11431;SDS011;5772;50.940;6.782;2022-11-14T13:35:24;34.90;;;31.87;;
11431;SDS011;5772;50.940;6.782;2022-11-14T13:41:08;34.93;;;31.93;;
11431;SDS011;5772;50.940;6.782;2022-11-14T13:43:49;32.87;;;30.07;;
11431;SDS011;5772;50.940;6.782;2022-11-14T13:46:22;35.37;;;32.23;;
11431;SDS011;5772;50.940;6.782;2022-11-14T13:51:42;32.43;;;29.90;;
11431;SDS011;5772;50.940;6.782;2022-11-14T13:54:11;33.43;;;30.90;;
11431;SDS011;5772;50.940;6.782;2022-11-14T13:56:39;32.13;;;29.67;;
11431;SDS011;5772;50.940;6.782;2022-11-14T13:59:31;33.07;;;30.43;;
11431;SDS011;5772;50.940;6.782;2022-11-14T14:02:15;34.67;;;31.97;;
11431;SDS011;5772;50.940;6.782;2022-11-14T14:05:01;32.37;;;29.93;;
11431;SDS011;5772;50.940;6.782;2022-11-14T14:07:30;33.10;;;30.53;;
11431;SDS011;5772;50.940;6.782;2022-11-14T14:10:02;33.03;;;30.70;;
11431;SDS011;5772;50.940;6.782;2022-11-14T14:15:19;33.80;;;31.00;;
11431;SDS011;5772;50.940;6.782;2022-11-14T14:17:48;32.83;;;30.20;;
11431;SDS011;5772;50.940;6.782;2022-11-14T14:20:30;33.03;;;30.43;;
11431;SDS011;5772;50.940;6.782;2022-11-14T14:23:00;34.20;;;31.60;;
11431;SDS011;5772;50.940;6.782;2022-11-14T14:25:33;33.53;;;31.23;;
11431;SDS011;5772;50.940;6.782;2022-11-14T14:28:08;32.27;;;29.60;;
11431;SDS011;5772;50.940;6.782;2022-11-14T14:30:35;32.57;;;30.07;;
11431;SDS011;5772;50.940;6.782;2022-11-14T14:33:08;32.73;;;29.97;;
11431;SDS011;5772;50.940;6.782;2022-11-14T14:35:35;33.23;;;30.73;;
11431;SDS011;5772;50.940;6.782;2022-11-14T14:38:02;34.90;;;31.93;;
11431;SDS011;5772;50.940;6.782;2022-11-14T14:40:28;32.80;;;29.97;;
11431;SDS011;5772;50.940;6.782;2022-11-14T14:42:55;33.40;;;30.83;;
11431;SDS011;5772;50.940;6.782;2022-11-14T14:45:22;32.47;;;29.83;;
11431;SDS011;5772;50.940;6.782;2022-11-14T14:47:49;33.13;;;30.23;;
11431;SDS011;5772;50.940;6.782;2022-11-14T14:50:18;31.93;;;29.23;;
11431;SDS011;5772;50.940;6.782;2022-11-14T14:52:44;33.13;;;30.50;;
11431;SDS011;5772;50.940;6.782;2022-11-14T14:55:16;33.43;;;31.03;;
11431;SDS011;5772;50.940;6.782;2022-11-14T14:57:43;32.53;;;29.87;;